sensor_id;sensor_type;location;lat;lon;timestamp;pressure;altitude;pressure_sealevel;temperature;humidity
60244;BME280;46106;51.468;5.814;2023-06-14T00:01:45;101053.34;;;18.65;56.43
60244;BME280;46106;51.468;5.814;2023-06-14T00:04:11;101047.78;;;18.57;56.45
60244;BME280;46106;51.468;5.814;2023-06-14T00:06:37;101066.72;;;18.62;56.46
60244;BME280;46106;51.468;5.814;2023-06-14T00:09:03;101066.38;;;18.65;56.54
60244;BME280;46106;51.468;5.814;2023-06-14T00:11:31;101071.41;;;18.61;55.85
60244;BME280;46106;51.468;5.814;2023-06-14T00:13:56;101063.38;;;18.50;57.24
60244;BME280;46106;51.468;5.814;2023-06-14T00:16:22;101061.44;;;18.42;57.47
60244;BME280;46106;51.468;5.814;2023-06-14T00:18:48;101072.16;;;18.37;58.17
60244;BME280;46106;51.468;5.814;2023-06-14T00:21:14;101068.19;;;18.40;57.99
60244;BME280;46106;51.468;5.814;2023-06-14T00:23:39;101061.75;;;18.31;57.98
60244;BME280;46106;51.468;5.814;2023-06-14T00:26:05;101073.31;;;18.26;58.70
60244;BME280;46106;51.468;5.814;2023-06-14T00:28:30;101076.63;;;18.30;57.70
60244;BME280;46106;51.468;5.814;2023-06-14T00:30:56;101084.53;;;18.16;57.87
60244;BME280;46106;51.468;5.814;2023-06-14T00:33:21;101071.53;;;18.09;59.04
60244;BME280;46106;51.468;5.814;2023-06-14T00:35:47;101074.84;;;18.12;58.49
60244;BME280;46106;51.468;5.814;2023-06-14T00:38:12;101079.25;;;17.97;59.18
60244;BME280;46106;51.468;5.814;2023-06-14T00:40:38;101080.94;;;17.90;59.77
60244;BME280;46106;51.468;5.814;2023-06-14T00:43:03;101076.63;;;17.95;59.48
60244;BME280;46106;51.468;5.814;2023-06-14T00:45:29;101080.28;;;17.96;58.88
60244;BME280;46106;51.468;5.814;2023-06-14T00:47:56;101073.66;;;17.89;58.92
60244;BME280;46106;51.468;5.814;2023-06-14T00:50:23;101080.84;;;17.81;58.84
60244;BME280;46106;51.468;5.814;2023-06-14T00:52:49;101075.31;;;17.81;58.62
60244;BME280;46106;51.468;5.814;2023-06-14T00:55:15;101080.09;;;17.71;59.82
60244;BME280;46106;51.468;5.814;2023-06-14T00:57:41;101081.13;;;17.70;59.80
60244;BME280;46106;51.468;5.814;2023-06-14T01:00:07;101078.69;;;17.67;59.21
60244;BME280;46106;51.468;5.814;2023-06-14T01:02:37;101093.41;;;17.68;58.61
60244;BME280;46106;51.468;5.814;2023-06-14T01:05:03;101086.88;;;17.51;59.94
60244;BME280;46106;51.468;5.814;2023-06-14T01:07:43;101083.78;;;17.54;59.89
60244;BME280;46106;51.468;5.814;2023-06-14T01:13:34;101085.69;;;17.53;57.92
60244;BME280;46106;51.468;5.814;2023-06-14T01:16:02;101080.22;;;17.61;57.63
60244;BME280;46106;51.468;5.814;2023-06-14T01:18:28;101093.09;;;17.53;58.98
60244;BME280;46106;51.468;5.814;2023-06-14T01:20:55;101091.22;;;17.53;58.69
60244;BME280;46106;51.468;5.814;2023-06-14T01:23:22;101087.50;;;17.44;59.39
60244;BME280;46106;51.468;5.814;2023-06-14T01:25:48;101075.66;;;17.34;59.26
60244;BME280;46106;51.468;5.814;2023-06-14T01:28:19;101083.59;;;17.29;59.50
60244;BME280;46106;51.468;5.814;2023-06-14T01:30:50;101085.19;;;17.32;59.09
60244;BME280;46106;51.468;5.814;2023-06-14T01:33:26;101086.91;;;17.33;59.25
60244;BME280;46106;51.468;5.814;2023-06-14T01:35:53;101089.13;;;17.29;59.77
60244;BME280;46106;51.468;5.814;2023-06-14T01:38:23;101090.81;;;17.22;59.68
60244;BME280;46106;51.468;5.814;2023-06-14T01:40:50;101091.75;;;17.13;60.14
60244;BME280;46106;51.468;5.814;2023-06-14T01:43:18;101092.75;;;17.12;60.54
60244;BME280;46106;51.468;5.814;2023-06-14T01:45:45;101094.44;;;17.22;60.51
60244;BME280;46106;51.468;5.814;2023-06-14T01:48:12;101080.38;;;17.16;59.83
60244;BME280;46106;51.468;5.814;2023-06-14T01:50:38;101090.00;;;17.12;59.52
60244;BME280;46106;51.468;5.814;2023-06-14T01:53:06;101084.63;;;17.10;59.66
60244;BME280;46106;51.468;5.814;2023-06-14T01:55:32;101088.91;;;17.04;59.56
60244;BME280;46106;51.468;5.814;2023-06-14T01:58:02;101080.44;;;17.06;59.85
60244;BME280;46106;51.468;5.814;2023-06-14T02:00:28;101086.06;;;16.96;60.73
60244;BME280;46106;51.468;5.814;2023-06-14T02:02:53;101073.31;;;16.85;60.36
60244;BME280;46106;51.468;5.814;2023-06-14T02:05:19;101081.63;;;16.85;61.00
60244;BME280;46106;51.468;5.814;2023-06-14T02:07:45;101083.56;;;16.75;61.04
60244;BME280;46106;51.468;5.814;2023-06-14T02:10:11;101085.16;;;16.78;61.64
60244;BME280;46106;51.468;5.814;2023-06-14T02:12:37;101076.69;;;16.79;61.53
60244;BME280;46106;51.468;5.814;2023-06-14T02:15:03;101077.25;;;16.83;60.71
60244;BME280;46106;51.468;5.814;2023-06-14T02:17:29;101082.84;;;16.73;61.91
60244;BME280;46106;51.468;5.814;2023-06-14T02:19:55;101075.47;;;16.64;62.34
60244;BME280;46106;51.468;5.814;2023-06-14T02:22:22;101078.63;;;16.69;62.56
60244;BME280;46106;51.468;5.814;2023-06-14T02:24:48;101079.81;;;16.48;63.11
60244;BME280;46106;51.468;5.814;2023-06-14T02:27:13;101073.88;;;16.43;62.75
60244;BME280;46106;51.468;5.814;2023-06-14T02:29:39;101092.44;;;16.51;62.21
60244;BME280;46106;51.468;5.814;2023-06-14T02:32:05;101085.81;;;16.62;62.59
60244;BME280;46106;51.468;5.814;2023-06-14T02:34:33;101082.25;;;16.51;62.44
60244;BME280;46106;51.468;5.814;2023-06-14T02:37:00;101094.59;;;16.57;62.83
60244;BME280;46106;51.468;5.814;2023-06-14T02:39:25;101099.16;;;16.48;62.98
60244;BME280;46106;51.468;5.814;2023-06-14T02:41:51;101097.41;;;16.47;63.39
60244;BME280;46106;51.468;5.814;2023-06-14T02:44:23;101085.09;;;16.42;63.28
60244;BME280;46106;51.468;5.814;2023-06-14T02:46:49;101086.31;;;16.29;63.98
60244;BME280;46106;51.468;5.814;2023-06-14T02:49:14;101095.00;;;16.34;64.05
60244;BME280;46106;51.468;5.814;2023-06-14T02:51:40;101096.34;;;16.30;64.47
60244;BME280;46106;51.468;5.814;2023-06-14T02:54:05;101088.69;;;16.14;66.00
60244;BME280;46106;51.468;5.814;2023-06-14T02:56:30;101087.84;;;16.14;66.22
60244;BME280;46106;51.468;5.814;2023-06-14T02:58:56;101104.69;;;16.21;66.08
60244;BME280;46106;51.468;5.814;2023-06-14T03:01:22;101109.94;;;16.14;65.60
60244;BME280;46106;51.468;5.814;2023-06-14T03:03:48;101103.38;;;16.15;65.79
60244;BME280;46106;51.468;5.814;2023-06-14T03:06:14;101108.59;;;16.18;64.78
60244;BME280;46106;51.468;5.814;2023-06-14T03:08:41;101108.19;;;16.13;65.75
60244;BME280;46106;51.468;5.814;2023-06-14T03:11:07;101113.88;;;16.11;66.54
60244;BME280;46106;51.468;5.814;2023-06-14T03:13:36;101114.59;;;16.13;66.43
60244;BME280;46106;51.468;5.814;2023-06-14T03:16:03;101118.53;;;16.11;66.55
60244;BME280;46106;51.468;5.814;2023-06-14T03:18:31;101116.63;;;16.11;66.30
60244;BME280;46106;51.468;5.814;2023-06-14T03:21:01;101111.28;;;16.00;66.92
60244;BME280;46106;51.468;5.814;2023-06-14T03:23:26;101121.88;;;16.05;67.00
60244;BME280;46106;51.468;5.814;2023-06-14T03:25:55;101124.38;;;15.98;66.72
60244;BME280;46106;51.468;5.814;2023-06-14T03:28:21;101125.09;;;16.00;66.88
60244;BME280;46106;51.468;5.814;2023-06-14T03:30:46;101125.13;;;15.90;68.91
60244;BME280;46106;51.468;5.814;2023-06-14T03:33:12;101127.75;;;15.92;68.98
60244;BME280;46106;51.468;5.814;2023-06-14T03:35:37;101130.66;;;15.90;69.05
60244;BME280;46106;51.468;5.814;2023-06-14T03:38:03;101108.91;;;15.68;69.94
60244;BME280;46106;51.468;5.814;2023-06-14T03:40:29;101128.81;;;15.81;69.77
60244;BME280;46106;51.468;5.814;2023-06-14T03:42:54;101123.69;;;15.86;67.90
60244;BME280;46106;51.468;5.814;2023-06-14T03:45:21;101129.81;;;15.80;69.16
60244;BME280;46106;51.468;5.814;2023-06-14T03:47:47;101131.41;;;15.83;69.04
60244;BME280;46106;51.468;5.814;2023-06-14T03:50:12;101131.00;;;15.77;69.96
60244;BME280;46106;51.468;5.814;2023-06-14T03:52:38;101132.88;;;15.77;69.19
60244;BME280;46106;51.468;5.814;2023-06-14T03:55:04;101139.69;;;15.83;69.51
60244;BME280;46106;51.468;5.814;2023-06-14T03:57:30;101138.81;;;15.82;70.53
60244;BME280;46106;51.468;5.814;2023-06-14T03:59:56;101143.91;;;15.77;71.15
60244;BME280;46106;51.468;5.814;2023-06-14T04:02:21;101145.06;;;15.74;71.58
60244;BME280;46106;51.468;5.814;2023-06-14T04:04:47;101151.88;;;15.90;70.84
60244;BME280;46106;51.468;5.814;2023-06-14T04:07:14;101142.31;;;15.84;71.15
60244;BME280;46106;51.468;5.814;2023-06-14T04:09:40;101150.44;;;15.86;70.09
60244;BME280;46106;51.468;5.814;2023-06-14T04:12:07;101156.09;;;15.94;70.71
60244;BME280;46106;51.468;5.814;2023-06-14T04:14:34;101150.88;;;15.91;70.77
60244;BME280;46106;51.468;5.814;2023-06-14T04:17:00;101153.19;;;15.95;71.43
60244;BME280;46106;51.468;5.814;2023-06-14T04:19:26;101144.44;;;16.00;71.09
60244;BME280;46106;51.468;5.814;2023-06-14T04:21:51;101148.81;;;15.93;72.14
60244;BME280;46106;51.468;5.814;2023-06-14T04:24:17;101159.97;;;16.11;71.01
60244;BME280;46106;51.468;5.814;2023-06-14T04:26:43;101158.50;;;16.07;72.46
60244;BME280;46106;51.468;5.814;2023-06-14T04:29:15;101158.25;;;16.00;73.50
60244;BME280;46106;51.468;5.814;2023-06-14T04:31:42;101148.50;;;16.06;73.44
60244;BME280;46106;51.468;5.814;2023-06-14T04:34:09;101156.94;;;16.04;73.79
60244;BME280;46106;51.468;5.814;2023-06-14T04:36:44;101160.97;;;16.10;73.98
60244;BME280;46106;51.468;5.814;2023-06-14T04:39:22;101154.00;;;16.15;73.82
60244;BME280;46106;51.468;5.814;2023-06-14T04:41:49;101166.13;;;16.32;72.25
60244;BME280;46106;51.468;5.814;2023-06-14T04:44:18;101168.88;;;16.42;71.40
60244;BME280;46106;51.468;5.814;2023-06-14T04:46:45;101175.41;;;16.41;72.40
60244;BME280;46106;51.468;5.814;2023-06-14T04:49:15;101164.63;;;16.48;72.43
60244;BME280;46106;51.468;5.814;2023-06-14T04:51:44;101164.16;;;16.52;70.91
60244;BME280;46106;51.468;5.814;2023-06-14T04:54:10;101170.53;;;16.63;70.84
60244;BME280;46106;51.468;5.814;2023-06-14T04:56:39;101172.28;;;16.54;70.90
60244;BME280;46106;51.468;5.814;2023-06-14T04:59:05;101173.28;;;16.63;72.18
60244;BME280;46106;51.468;5.814;2023-06-14T05:01:31;101183.97;;;16.76;71.60
60244;BME280;46106;51.468;5.814;2023-06-14T05:03:57;101173.34;;;16.81;71.09
60244;BME280;46106;51.468;5.814;2023-06-14T05:06:23;101174.88;;;16.93;70.57
60244;BME280;46106;51.468;5.814;2023-06-14T05:08:49;101170.38;;;16.92;70.07
60244;BME280;46106;51.468;5.814;2023-06-14T05:11:14;101171.66;;;16.98;69.89
60244;BME280;46106;51.468;5.814;2023-06-14T05:13:40;101166.66;;;17.01;70.44
60244;BME280;46106;51.468;5.814;2023-06-14T05:16:07;101186.84;;;17.12;70.01
60244;BME280;46106;51.468;5.814;2023-06-14T05:18:32;101180.16;;;17.32;68.70
60244;BME280;46106;51.468;5.814;2023-06-14T05:21:00;101189.78;;;17.64;68.01
60244;BME280;46106;51.468;5.814;2023-06-14T05:23:26;101193.00;;;17.95;66.70
60244;BME280;46106;51.468;5.814;2023-06-14T05:25:52;101188.72;;;18.27;64.54
60244;BME280;46106;51.468;5.814;2023-06-14T05:28:18;101198.50;;;18.40;63.61
60244;BME280;46106;51.468;5.814;2023-06-14T05:30:43;101191.84;;;18.59;62.81
60244;BME280;46106;51.468;5.814;2023-06-14T05:33:09;101192.19;;;18.98;59.91
60244;BME280;46106;51.468;5.814;2023-06-14T05:35:34;101190.88;;;19.19;58.74
60244;BME280;46106;51.468;5.814;2023-06-14T05:38:00;101208.63;;;19.34;58.01
60244;BME280;46106;51.468;5.814;2023-06-14T05:40:25;101197.19;;;19.54;58.18
60244;BME280;46106;51.468;5.814;2023-06-14T05:42:51;101210.91;;;19.72;56.39
60244;BME280;46106;51.468;5.814;2023-06-14T05:45:16;101212.53;;;19.91;55.08
60244;BME280;46106;51.468;5.814;2023-06-14T05:47:45;101217.00;;;20.25;53.70
60244;BME280;46106;51.468;5.814;2023-06-14T05:50:10;101219.06;;;20.39;53.74
60244;BME280;46106;51.468;5.814;2023-06-14T05:52:36;101223.91;;;20.53;53.36
60244;BME280;46106;51.468;5.814;2023-06-14T05:55:03;101217.44;;;20.61;54.18
60244;BME280;46106;51.468;5.814;2023-06-14T05:57:29;101217.63;;;21.07;52.74
60244;BME280;46106;51.468;5.814;2023-06-14T05:59:55;101218.81;;;21.13;52.30
60244;BME280;46106;51.468;5.814;2023-06-14T06:02:20;101208.81;;;20.96;51.59
60244;BME280;46106;51.468;5.814;2023-06-14T06:04:46;101229.25;;;21.74;50.36
60244;BME280;46106;51.468;5.814;2023-06-14T06:07:11;101225.31;;;21.68;49.84
60244;BME280;46106;51.468;5.814;2023-06-14T06:09:37;101239.47;;;21.81;49.77
60244;BME280;46106;51.468;5.814;2023-06-14T06:12:02;101234.38;;;21.85;49.23
60244;BME280;46106;51.468;5.814;2023-06-14T06:14:28;101234.44;;;22.00;48.11
60244;BME280;46106;51.468;5.814;2023-06-14T06:16:55;101230.03;;;22.29;47.90
60244;BME280;46106;51.468;5.814;2023-06-14T06:19:20;101245.44;;;22.39;47.78
60244;BME280;46106;51.468;5.814;2023-06-14T06:21:46;101244.22;;;22.87;45.93
60244;BME280;46106;51.468;5.814;2023-06-14T06:24:11;101245.75;;;23.04;45.30
60244;BME280;46106;51.468;5.814;2023-06-14T06:26:37;101239.78;;;22.92;46.49
60244;BME280;46106;51.468;5.814;2023-06-14T06:29:02;101247.75;;;22.95;46.30
60244;BME280;46106;51.468;5.814;2023-06-14T06:31:28;101242.19;;;22.81;46.89
60244;BME280;46106;51.468;5.814;2023-06-14T06:33:54;101256.13;;;23.40;45.20
60244;BME280;46106;51.468;5.814;2023-06-14T06:36:20;101249.69;;;23.25;45.30
60244;BME280;46106;51.468;5.814;2023-06-14T06:38:47;101253.91;;;23.94;43.30
60244;BME280;46106;51.468;5.814;2023-06-14T06:41:13;101258.28;;;23.60;43.71
60244;BME280;46106;51.468;5.814;2023-06-14T06:43:38;101264.13;;;23.43;44.92
60244;BME280;46106;51.468;5.814;2023-06-14T06:46:04;101266.91;;;23.43;44.72
60244;BME280;46106;51.468;5.814;2023-06-14T06:48:29;101260.66;;;23.99;43.73
60244;BME280;46106;51.468;5.814;2023-06-14T06:50:55;101271.53;;;23.88;43.19
60244;BME280;46106;51.468;5.814;2023-06-14T06:53:20;101270.16;;;24.27;43.22
60244;BME280;46106;51.468;5.814;2023-06-14T06:55:46;101271.25;;;24.54;41.97
60244;BME280;46106;51.468;5.814;2023-06-14T06:58:14;101270.50;;;24.67;42.28
60244;BME280;46106;51.468;5.814;2023-06-14T07:00:39;101283.31;;;25.18;40.94
60244;BME280;46106;51.468;5.814;2023-06-14T07:03:05;101280.56;;;24.89;40.89
60244;BME280;46106;51.468;5.814;2023-06-14T07:05:31;101283.44;;;25.03;41.57
60244;BME280;46106;51.468;5.814;2023-06-14T07:07:57;101292.09;;;25.49;39.76
60244;BME280;46106;51.468;5.814;2023-06-14T07:10:23;101288.88;;;25.53;39.97
60244;BME280;46106;51.468;5.814;2023-06-14T07:12:50;101290.69;;;25.80;40.05
60244;BME280;46106;51.468;5.814;2023-06-14T07:15:15;101289.44;;;25.28;41.18
60244;BME280;46106;51.468;5.814;2023-06-14T07:17:41;101288.63;;;26.36;38.20
60244;BME280;46106;51.468;5.814;2023-06-14T07:20:08;101297.19;;;25.88;39.11
60244;BME280;46106;51.468;5.814;2023-06-14T07:22:43;101300.88;;;25.33;40.46
60244;BME280;46106;51.468;5.814;2023-06-14T07:25:09;101295.91;;;25.90;39.68
60244;BME280;46106;51.468;5.814;2023-06-14T07:27:40;101298.91;;;25.82;38.64
60244;BME280;46106;51.468;5.814;2023-06-14T07:30:08;101297.50;;;26.26;37.52
60244;BME280;46106;51.468;5.814;2023-06-14T07:32:33;101296.16;;;26.02;37.36
60244;BME280;46106;51.468;5.814;2023-06-14T07:34:59;101294.47;;;26.14;38.11
60244;BME280;46106;51.468;5.814;2023-06-14T07:37:24;101297.06;;;26.22;37.99
60244;BME280;46106;51.468;5.814;2023-06-14T07:39:50;101297.28;;;26.54;36.01
60244;BME280;46106;51.468;5.814;2023-06-14T07:42:16;101299.22;;;26.60;36.49
60244;BME280;46106;51.468;5.814;2023-06-14T07:44:41;101306.13;;;26.51;35.99
60244;BME280;46106;51.468;5.814;2023-06-14T07:47:07;101302.16;;;25.92;36.05
60244;BME280;46106;51.468;5.814;2023-06-14T07:49:33;101318.03;;;26.53;36.69
60244;BME280;46106;51.468;5.814;2023-06-14T07:51:58;101321.28;;;26.50;35.97
60244;BME280;46106;51.468;5.814;2023-06-14T07:54:25;101306.38;;;26.56;34.92
60244;BME280;46106;51.468;5.814;2023-06-14T07:56:52;101309.19;;;26.83;35.04
60244;BME280;46106;51.468;5.814;2023-06-14T07:59:18;101320.63;;;26.55;34.55
60244;BME280;46106;51.468;5.814;2023-06-14T08:01:43;101322.13;;;26.24;36.52
60244;BME280;46106;51.468;5.814;2023-06-14T08:04:15;101308.06;;;27.04;34.99
60244;BME280;46106;51.468;5.814;2023-06-14T08:06:41;101332.03;;;27.34;34.61
60244;BME280;46106;51.468;5.814;2023-06-14T08:09:10;101320.31;;;27.23;35.13
60244;BME280;46106;51.468;5.814;2023-06-14T08:11:36;101321.91;;;27.64;33.51
60244;BME280;46106;51.468;5.814;2023-06-14T08:14:01;101318.81;;;27.79;33.96
60244;BME280;46106;51.468;5.814;2023-06-14T08:16:27;101320.50;;;27.87;33.19
60244;BME280;46106;51.468;5.814;2023-06-14T08:18:53;101326.66;;;27.71;33.59
60244;BME280;46106;51.468;5.814;2023-06-14T08:21:18;101327.19;;;27.99;32.67
60244;BME280;46106;51.468;5.814;2023-06-14T08:23:44;101327.44;;;27.91;31.93
60244;BME280;46106;51.468;5.814;2023-06-14T08:26:10;101320.28;;;27.95;32.64
60244;BME280;46106;51.468;5.814;2023-06-14T08:28:36;101316.78;;;28.00;33.61
60244;BME280;46106;51.468;5.814;2023-06-14T08:31:01;101332.63;;;27.87;32.99
60244;BME280;46106;51.468;5.814;2023-06-14T08:33:27;101319.97;;;28.10;32.22
60244;BME280;46106;51.468;5.814;2023-06-14T08:35:52;101324.81;;;27.44;32.07
60244;BME280;46106;51.468;5.814;2023-06-14T08:38:18;101325.16;;;27.61;31.89
60244;BME280;46106;51.468;5.814;2023-06-14T08:40:45;101328.50;;;27.90;30.22
60244;BME280;46106;51.468;5.814;2023-06-14T08:43:13;101310.28;;;27.54;31.18
60244;BME280;46106;51.468;5.814;2023-06-14T08:45:38;101325.28;;;27.35;30.93
60244;BME280;46106;51.468;5.814;2023-06-14T08:48:06;101324.53;;;28.68;28.92
60244;BME280;46106;51.468;5.814;2023-06-14T08:50:32;101325.28;;;29.01;28.07
60244;BME280;46106;51.468;5.814;2023-06-14T08:53:01;101329.53;;;28.34;28.53
60244;BME280;46106;51.468;5.814;2023-06-14T08:55:28;101316.50;;;28.08;28.52
60244;BME280;46106;51.468;5.814;2023-06-14T08:57:55;101332.72;;;28.13;28.56
60244;BME280;46106;51.468;5.814;2023-06-14T09:00:24;101332.53;;;28.39;27.67
60244;BME280;46106;51.468;5.814;2023-06-14T09:02:51;101327.13;;;28.70;26.90
60244;BME280;46106;51.468;5.814;2023-06-14T09:05:22;101317.94;;;28.24;27.87
60244;BME280;46106;51.468;5.814;2023-06-14T09:07:48;101315.09;;;27.85;27.85
60244;BME280;46106;51.468;5.814;2023-06-14T09:10:16;101323.16;;;28.20;27.39
60244;BME280;46106;51.468;5.814;2023-06-14T09:12:42;101323.16;;;27.10;28.20
60244;BME280;46106;51.468;5.814;2023-06-14T09:15:08;101325.59;;;28.10;28.93
60244;BME280;46106;51.468;5.814;2023-06-14T09:17:38;101322.72;;;28.49;28.49
60244;BME280;46106;51.468;5.814;2023-06-14T09:20:05;101320.28;;;28.52;28.39
60244;BME280;46106;51.468;5.814;2023-06-14T09:22:35;101324.75;;;28.35;28.17
60244;BME280;46106;51.468;5.814;2023-06-14T09:25:02;101326.66;;;28.41;28.94
60244;BME280;46106;51.468;5.814;2023-06-14T09:27:28;101321.59;;;28.82;27.79
60244;BME280;46106;51.468;5.814;2023-06-14T09:29:53;101343.66;;;28.59;27.31
60244;BME280;46106;51.468;5.814;2023-06-14T09:32:21;101331.50;;;28.34;26.78
60244;BME280;46106;51.468;5.814;2023-06-14T09:34:47;101323.03;;;28.66;27.15
60244;BME280;46106;51.468;5.814;2023-06-14T09:37:12;101322.31;;;28.95;26.49
60244;BME280;46106;51.468;5.814;2023-06-14T09:39:50;101331.22;;;28.42;27.36
60244;BME280;46106;51.468;5.814;2023-06-14T09:42:17;101340.94;;;28.78;26.11
60244;BME280;46106;51.468;5.814;2023-06-14T09:44:47;101328.41;;;28.92;26.41
60244;BME280;46106;51.468;5.814;2023-06-14T09:47:15;101333.03;;;29.05;27.44
60244;BME280;46106;51.468;5.814;2023-06-14T09:49:40;101333.06;;;28.55;27.37
60244;BME280;46106;51.468;5.814;2023-06-14T09:52:06;101322.47;;;28.57;28.60
60244;BME280;46106;51.468;5.814;2023-06-14T09:54:39;101313.88;;;28.70;27.50
60244;BME280;46106;51.468;5.814;2023-06-14T09:57:07;101317.88;;;29.06;28.07
60244;BME280;46106;51.468;5.814;2023-06-14T09:59:34;101315.75;;;28.26;28.35
60244;BME280;46106;51.468;5.814;2023-06-14T10:02:07;101325.19;;;28.07;28.95
60244;BME280;46106;51.468;5.814;2023-06-14T10:04:35;101323.31;;;27.87;29.16
60244;BME280;46106;51.468;5.814;2023-06-14T10:07:04;101326.31;;;27.99;28.66
60244;BME280;46106;51.468;5.814;2023-06-14T10:09:30;101319.09;;;28.10;28.89
60244;BME280;46106;51.468;5.814;2023-06-14T10:11:56;101324.75;;;28.35;28.96
60244;BME280;46106;51.468;5.814;2023-06-14T10:14:21;101325.06;;;28.58;28.45
60244;BME280;46106;51.468;5.814;2023-06-14T10:17:04;101311.97;;;28.89;27.16
60244;BME280;46106;51.468;5.814;2023-06-14T10:22:18;101328.41;;;28.92;26.71
60244;BME280;46106;51.468;5.814;2023-06-14T10:24:45;101323.78;;;28.48;27.74
60244;BME280;46106;51.468;5.814;2023-06-14T10:27:14;101328.34;;;28.49;28.14
60244;BME280;46106;51.468;5.814;2023-06-14T10:32:21;101332.22;;;28.22;28.04
60244;BME280;46106;51.468;5.814;2023-06-14T10:35:00;101317.94;;;28.24;29.48
60244;BME280;46106;51.468;5.814;2023-06-14T10:37:26;101324.53;;;28.36;28.75
60244;BME280;46106;51.468;5.814;2023-06-14T10:39:51;101308.28;;;28.89;29.74
60244;BME280;46106;51.468;5.814;2023-06-14T10:42:18;101311.69;;;28.47;28.19
60244;BME280;46106;51.468;5.814;2023-06-14T10:49:50;101313.88;;;28.70;29.77
60244;BME280;46106;51.468;5.814;2023-06-14T10:52:20;101322.84;;;28.86;29.01
60244;BME280;46106;51.468;5.814;2023-06-14T10:55:06;101324.66;;;28.48;29.22
60244;BME280;46106;51.468;5.814;2023-06-14T10:57:39;101314.34;;;28.67;28.61
60244;BME280;46106;51.468;5.814;2023-06-14T11:00:07;101318.03;;;28.11;29.93
60244;BME280;46106;51.468;5.814;2023-06-14T11:05:49;101327.47;;;28.23;28.77
60244;BME280;46106;51.468;5.814;2023-06-14T11:08:43;101323.78;;;28.80;28.66
60244;BME280;46106;51.468;5.814;2023-06-14T11:11:13;101320.09;;;28.22;30.39
60244;BME280;46106;51.468;5.814;2023-06-14T11:13:41;101324.13;;;28.65;28.49
60244;BME280;46106;51.468;5.814;2023-06-14T11:16:14;101321.84;;;27.84;28.60
60244;BME280;46106;51.468;5.814;2023-06-14T11:18:40;101329.75;;;28.08;29.73
60244;BME280;46106;51.468;5.814;2023-06-14T11:21:06;101327.56;;;28.10;30.21
60244;BME280;46106;51.468;5.814;2023-06-14T11:23:31;101317.78;;;27.74;30.45
60244;BME280;46106;51.468;5.814;2023-06-14T11:25:57;101318.66;;;27.67;31.00
60244;BME280;46106;51.468;5.814;2023-06-14T11:28:22;101315.38;;;27.12;30.74
60244;BME280;46106;51.468;5.814;2023-06-14T11:31:09;101312.19;;;27.67;31.18
60244;BME280;46106;51.468;5.814;2023-06-14T11:33:34;101307.88;;;28.03;31.58
60244;BME280;46106;51.468;5.814;2023-06-14T11:36:05;101308.91;;;28.09;31.12
60244;BME280;46106;51.468;5.814;2023-06-14T11:38:35;101297.97;;;27.94;30.94
60244;BME280;46106;51.468;5.814;2023-06-14T11:41:01;101307.84;;;27.64;32.62
60244;BME280;46106;51.468;5.814;2023-06-14T11:43:27;101307.19;;;27.69;30.45
60244;BME280;46106;51.468;5.814;2023-06-14T11:45:52;101305.84;;;27.13;31.65
60244;BME280;46106;51.468;5.814;2023-06-14T11:48:18;101308.84;;;27.25;31.47
60244;BME280;46106;51.468;5.814;2023-06-14T11:50:44;101295.44;;;27.40;31.03
60244;BME280;46106;51.468;5.814;2023-06-14T11:53:09;101313.63;;;27.24;30.94
60244;BME280;46106;51.468;5.814;2023-06-14T11:55:38;101310.34;;;27.41;29.45
60244;BME280;46106;51.468;5.814;2023-06-14T11:58:05;101313.00;;;27.16;30.22
60244;BME280;46106;51.468;5.814;2023-06-14T12:00:31;101305.69;;;27.66;29.78
60244;BME280;46106;51.468;5.814;2023-06-14T12:02:57;101310.78;;;27.38;30.49
60244;BME280;46106;51.468;5.814;2023-06-14T12:05:24;101317.50;;;27.23;30.91
60244;BME280;46106;51.468;5.814;2023-06-14T12:07:58;101316.44;;;27.24;30.95
60244;BME280;46106;51.468;5.814;2023-06-14T12:10:24;101310.69;;;26.79;30.16
60244;BME280;46106;51.468;5.814;2023-06-14T12:12:50;101303.16;;;26.73;31.55
60244;BME280;46106;51.468;5.814;2023-06-14T12:15:16;101302.41;;;27.11;31.42
60244;BME280;46106;51.468;5.814;2023-06-14T12:17:42;101311.53;;;27.00;31.20
60244;BME280;46106;51.468;5.814;2023-06-14T12:20:09;101295.97;;;26.84;31.17
60244;BME280;46106;51.468;5.814;2023-06-14T12:25:36;101308.50;;;27.01;32.15
60244;BME280;46106;51.468;5.814;2023-06-14T12:28:07;101297.94;;;26.83;32.54
60244;BME280;46106;51.468;5.814;2023-06-14T12:30:34;101310.88;;;26.57;32.31
60244;BME280;46106;51.468;5.814;2023-06-14T12:33:04;101295.13;;;26.56;32.29
60244;BME280;46106;51.468;5.814;2023-06-14T12:35:29;101306.13;;;26.45;32.05
60244;BME280;46106;51.468;5.814;2023-06-14T12:37:55;101307.84;;;26.86;31.88
60244;BME280;46106;51.468;5.814;2023-06-14T12:40:22;101312.41;;;26.40;31.67
60244;BME280;46106;51.468;5.814;2023-06-14T12:42:47;101297.72;;;26.38;31.18
60244;BME280;46106;51.468;5.814;2023-06-14T12:45:13;101304.13;;;27.12;32.04
60244;BME280;46106;51.468;5.814;2023-06-14T12:47:39;101312.31;;;27.40;30.39
60244;BME280;46106;51.468;5.814;2023-06-14T12:50:05;101311.78;;;26.78;29.82
60244;BME280;46106;51.468;5.814;2023-06-14T12:52:31;101313.50;;;26.79;29.70
60244;BME280;46106;51.468;5.814;2023-06-14T12:54:57;101303.97;;;26.60;29.41
60244;BME280;46106;51.468;5.814;2023-06-14T12:57:23;101300.94;;;26.21;29.87
60244;BME280;46106;51.468;5.814;2023-06-14T12:59:48;101308.72;;;26.26;30.81
60244;BME280;46106;51.468;5.814;2023-06-14T13:02:19;101300.50;;;25.98;30.45
60244;BME280;46106;51.468;5.814;2023-06-14T13:04:47;101310.19;;;26.02;32.44
60244;BME280;46106;51.468;5.814;2023-06-14T13:07:13;101301.56;;;26.03;31.46
60244;BME280;46106;51.468;5.814;2023-06-14T13:09:40;101305.28;;;26.17;32.26